Time;durP1;ratioP1;P1;durP2;ratioP2;P2;SDS_P1;SDS_P2;PMS_P1;PMS_P2;Temp;Humidity;BMP_temperature;BMP_pressure;BME280_temperature;BME280_humidity;BME280_pressure;Samples;Min_cycle;Max_cycle;Signal;HPM_P1;HPM_P2
2023/08/26 00:04:51;;;;;;;7.40;2.58;;;16.50;1.00;;;;;;20804048;28;20089;-43
2023/08/26 00:14:51;;;;;;;5.60;2.97;;;16.60;2.30;;;;;;20802118;28;20037;-43
2023/08/26 00:24:52;;;;;;;7.10;2.88;;;16.70;1.00;;;;;;20805998;28;20582;-43
2023/08/26 00:34:52;;;;;;;6.63;3.25;;;16.80;1.00;;;;;;20808866;28;20045;-44
2023/08/26 00:44:53;;;;;;;5.47;3.20;;;16.80;1.00;;;;;;20806979;28;20095;-43
2023/08/26 00:54:53;;;;;;;7.82;3.38;;;17.00;1.00;;;;;;20818595;28;20132;-43
2023/08/26 01:04:55;;;;;;;6.20;3.28;;;17.00;1.00;;;;;;20818581;28;20037;-43
2023/08/26 01:15:16;;;;;;;7.90;4.18;;;17.00;1.00;;;;;;20804083;28;20041;-43
2023/08/26 01:25:16;;;;;;;8.30;5.00;;;17.30;1.00;;;;;;20815311;28;20039;-43
2023/08/26 01:35:26;;;;;;;9.68;3.78;;;17.50;1.00;;;;;;20818445;28;20033;-43
2023/08/26 01:45:27;;;;;;;10.68;3.97;;;17.20;1.00;;;;;;20806931;28;20080;-43
2023/08/26 01:55:27;;;;;;;7.20;3.97;;;17.40;1.00;;;;;;20813365;28;20083;-43
2023/08/26 02:05:28;;;;;;;5.78;2.65;;;17.20;1.00;;;;;;20814403;28;20044;-44
2023/08/26 02:15:28;;;;;;;7.53;2.85;;;17.20;1.00;;;;;;20812112;28;20116;-43
2023/08/26 02:25:29;;;;;;;8.38;3.20;;;17.20;1.00;;;;;;20812319;28;20033;-43
2023/08/26 02:35:30;;;;;;;7.28;3.72;;;17.00;1.00;;;;;;20810924;28;20488;-43
2023/08/26 02:45:31;;;;;;;9.70;4.53;;;16.90;1.00;;;;;;20807332;28;20026;-43
2023/08/26 02:55:31;;;;;;;10.95;4.25;;;16.80;1.00;;;;;;20812779;28;20040;-43
2023/08/26 03:05:33;;;;;;;8.20;4.35;;;16.60;1.00;;;;;;20813494;28;20099;-43
2023/08/26 03:15:34;;;;;;;6.82;4.38;;;16.50;1.00;;;;;;20807422;28;20074;-43
2023/08/26 03:25:38;;;;;;;8.07;5.00;;;16.40;1.00;;;;;;20797569;28;20033;-43
2023/08/26 03:35:39;;;;;;;9.95;5.22;;;16.40;1.00;;;;;;20804454;28;20393;-43
2023/08/26 03:45:40;;;;;;;14.00;5.57;;;16.10;1.00;;;;;;20803572;28;20040;-43
2023/08/26 03:55:41;;;;;;;8.63;5.47;;;15.70;1.00;;;;;;20805385;28;20496;-43
2023/08/26 04:05:42;;;;;;;10.35;5.70;;;15.40;20.00;;;;;;20807256;28;20137;-43
2023/08/26 04:15:42;;;;;;;8.97;4.87;;;15.50;36.10;;;;;;20802184;28;20516;-43
2023/08/26 04:25:44;;;;;;;9.75;5.25;;;15.60;22.20;;;;;;20805124;28;20107;-43
2023/08/26 04:35:44;;;;;;;8.52;4.43;;;15.80;15.40;;;;;;20799093;28;20765;-43
2023/08/26 04:45:45;;;;;;;10.35;5.45;;;15.70;8.00;;;;;;20800701;28;20037;-43
2023/08/26 04:55:51;;;;;;;9.25;4.47;;;15.70;4.30;;;;;;20798495;28;20080;-43
2023/08/26 05:05:52;;;;;;;7.03;3.90;;;15.70;1.70;;;;;;20798932;28;20389;-43
2023/08/26 05:15:53;;;;;;;8.93;4.50;;;15.70;1.00;;;;;;20804288;28;20033;-43
2023/08/26 05:25:53;;;;;;;9.38;3.95;;;15.50;3.20;;;;;;20802699;28;20400;-43
2023/08/26 05:35:54;;;;;;;10.68;5.00;;;15.40;1.30;;;;;;20810714;28;20577;-43
2023/08/26 05:45:58;;;;;;;12.73;5.47;;;15.30;2.50;;;;;;20812049;28;20557;-43
2023/08/26 05:55:59;;;;;;;9.27;4.85;;;15.30;1.00;;;;;;20799797;28;20453;-44
2023/08/26 06:05:59;;;;;;;15.88;5.07;;;15.40;1.70;;;;;;20812411;28;20424;-43
2023/08/26 06:16:00;;;;;;;10.13;5.47;;;15.50;1.00;;;;;;20815003;28;20135;-43
2023/08/26 06:26:00;;;;;;;11.70;5.50;;;15.50;1.00;;;;;;20815229;28;20408;-43
2023/08/26 06:36:02;;;;;;;9.77;5.38;;;15.60;1.00;;;;;;20827236;28;20048;-43
2023/08/26 06:46:03;;;;;;;9.15;4.75;;;15.70;1.00;;;;;;20814846;28;20037;-43
2023/08/26 06:56:04;;;;;;;9.75;4.75;;;16.00;1.00;;;;;;20815647;28;20076;-44
2023/08/26 07:06:04;;;;;;;7.28;4.43;;;16.20;1.00;;;;;;20824476;28;20036;-43
2023/08/26 07:16:05;;;;;;;11.95;4.47;;;16.30;1.00;;;;;;20836439;28;20507;-43
2023/08/26 07:26:05;;;;;;;11.57;5.40;;;16.40;1.00;;;;;;20835349;28;20670;-43
2023/08/26 07:36:09;;;;;;;8.63;4.80;;;16.50;1.00;;;;;;20835141;28;20064;-43
2023/08/26 07:46:09;;;;;;;10.02;3.88;;;16.80;1.00;;;;;;20835010;28;20203;-43
2023/08/26 07:56:10;;;;;;;4.63;3.00;;;17.00;1.00;;;;;;20832186;28;20048;-43
2023/08/26 08:06:11;;;;;;;6.03;2.90;;;16.90;1.00;;;;;;20835275;28;20516;-43
2023/08/26 08:16:11;;;;;;;4.55;3.05;;;17.00;1.00;;;;;;20835400;28;20044;-43
2023/08/26 08:26:12;;;;;;;4.25;2.50;;;17.40;1.00;;;;;;20831520;28;20036;-43
2023/08/26 08:36:12;;;;;;;3.75;2.17;;;18.10;1.00;;;;;;20832541;28;20037;-44
2023/08/26 08:46:14;;;;;;;4.35;2.42;;;18.50;1.00;;;;;;20833647;28;20040;-43
2023/08/26 08:56:16;;;;;;;6.43;2.53;;;18.50;1.00;;;;;;20832058;28;20086;-43
2023/08/26 09:06:20;;;;;;;7.68;2.95;;;18.70;1.00;;;;;;20840491;28;20469;-43
2023/08/26 09:16:39;;;;;;;3.00;2.40;;;19.10;1.00;;;;;;20848415;28;20045;-44
2023/08/26 09:26:41;;;;;;;6.30;2.35;;;19.60;1.00;;;;;;20845229;28;20053;-44
2023/08/26 09:36:42;;;;;;;4.13;3.28;;;19.60;1.00;;;;;;20845039;28;20427;-43
2023/08/26 09:46:46;;;;;;;5.07;3.10;;;19.90;1.00;;;;;;20843469;28;20511;-43
2023/08/26 09:56:48;;;;;;;5.18;2.60;;;19.90;1.00;;;;;;20842631;28;20049;-44
2023/08/26 10:06:55;;;;;;;3.72;3.00;;;19.90;1.00;;;;;;20843189;28;20633;-44
2023/08/26 10:16:59;;;;;;;5.18;2.58;;;20.50;1.00;;;;;;20842843;28;20041;-44
2023/08/26 10:27:00;;;;;;;3.90;2.30;;;20.30;1.00;;;;;;20840038;28;20478;-44
2023/08/26 10:37:01;;;;;;;4.25;2.20;;;19.80;1.00;;;;;;20840183;28;20489;-44
2023/08/26 10:47:01;;;;;;;3.35;1.38;;;19.70;1.00;;;;;;20840414;28;20779;-44
2023/08/26 10:57:07;;;;;;;3.08;1.10;;;20.60;1.00;;;;;;20837603;28;20068;-44
2023/08/26 11:07:13;;;;;;;4.30;1.27;;;21.20;1.00;;;;;;20837855;28;20544;-44
2023/08/26 11:17:13;;;;;;;3.30;1.38;;;21.50;1.00;;;;;;20837602;28;20040;-44
2023/08/26 11:27:14;;;;;;;4.13;1.70;;;21.00;1.00;;;;;;20834820;28;20489;-44
2023/08/26 11:37:18;;;;;;;2.75;1.10;;;20.40;1.00;;;;;;20832200;28;20090;-44
2023/08/26 11:47:18;;;;;;;2.53;0.80;;;20.80;1.00;;;;;;20833106;28;20090;-43
2023/08/26 11:57:22;;;;;;;1.70;1.05;;;21.60;1.00;;;;;;20832572;28;20489;-43
2023/08/26 12:07:24;;;;;;;2.10;1.20;;;21.20;1.00;;;;;;20832730;28;20045;-43
2023/08/26 12:17:25;;;;;;;2.05;1.30;;;21.10;1.00;;;;;;20832995;28;20150;-43
2023/08/26 12:27:25;;;;;;;3.92;1.30;;;21.70;1.00;;;;;;20831996;28;20037;-44
2023/08/26 12:37:26;;;;;;;4.47;1.55;;;21.90;1.00;;;;;;20835270;28;20045;-44
2023/08/26 12:47:27;;;;;;;5.13;2.20;;;20.80;1.00;;;;;;20848974;28;20288;-44
2023/08/26 12:57:28;;;;;;;5.28;3.20;;;18.70;1.00;;;;;;20848059;28;20037;-45
2023/08/26 13:07:29;;;;;;;4.03;2.28;;;18.00;25.60;;;;;;20846952;28;20037;-45
2023/08/26 13:17:29;;;;;;;3.78;1.90;;;19.10;1.00;;;;;;20844975;28;20049;-45
2023/08/26 13:27:30;;;;;;;2.03;1.10;;;20.00;1.00;;;;;;20843635;28;20037;-45
2023/08/26 13:37:30;;;;;;;2.95;0.70;;;20.90;1.00;;;;;;20843416;28;20049;-45
2023/08/26 13:47:31;;;;;;;2.72;1.00;;;21.00;1.00;;;;;;20844262;28;20535;-45
2023/08/26 13:57:31;;;;;;;3.97;2.05;;;20.10;1.00;;;;;;20842301;28;20040;-45
2023/08/26 14:07:32;;;;;;;6.65;2.90;;;19.40;1.00;;;;;;20842046;28;20044;-45
2023/08/26 14:17:32;;;;;;;4.07;2.38;;;18.10;1.00;;;;;;20840970;28;20033;-44
2023/08/26 14:27:33;;;;;;;2.50;1.80;;;17.00;1.00;;;;;;20840546;28;20025;-43
2023/08/26 14:37:33;;;;;;;3.25;2.35;;;16.60;1.00;;;;;;20838966;28;20045;-43
2023/08/26 14:47:34;;;;;;;4.97;3.30;;;16.40;6.50;;;;;;20839471;28;20541;-43
2023/08/26 14:57:35;;;;;;;8.27;3.92;;;16.30;26.20;;;;;;20836705;28;20606;-43
2023/08/26 15:07:35;;;;;;;7.65;4.88;;;16.40;66.20;;;;;;20837521;28;20492;-43
2023/08/26 15:17:36;;;;;;;6.10;4.38;;;16.90;99.90;;;;;;20837841;28;20072;-44
2023/08/26 15:27:36;;;;;;;5.38;3.33;;;17.30;43.60;;;;;;20837746;28;20068;-43
2023/08/26 15:37:37;;;;;;;7.15;3.78;;;17.70;21.10;;;;;;20836232;28;20048;-44
2023/08/26 15:47:38;;;;;;;4.65;3.03;;;17.70;24.80;;;;;;20835164;28;20230;-44
2023/08/26 15:57:38;;;;;;;3.38;3.03;;;17.60;11.30;;;;;;20832810;28;20037;-44
2023/08/26 16:07:40;;;;;;;4.93;3.25;;;17.30;46.00;;;;;;20833676;28;20033;-44
2023/08/26 16:17:40;;;;;;;4.15;2.50;;;17.60;5.10;;;;;;20832813;28;20041;-44
2023/08/26 16:27:41;;;;;;;3.00;1.95;;;17.80;1.00;;;;;;20831830;28;20466;-44
2023/08/26 16:37:41;;;;;;;3.55;1.92;;;17.80;1.00;;;;;;20832727;28;20056;-45
2023/08/26 16:47:43;;;;;;;3.72;2.40;;;18.00;1.00;;;;;;20831963;28;20056;-44
2023/08/26 16:57:44;;;;;;;3.80;2.65;;;18.10;1.00;;;;;;20831090;28;20041;-44
2023/08/26 17:07:44;;;;;;;3.50;2.28;;;17.90;1.00;;;;;;20830269;28;20150;-45
2023/08/26 17:17:45;;;;;;;4.60;2.22;;;18.00;1.00;;;;;;20830699;28;20067;-45
2023/08/26 17:27:45;;;;;;;3.60;1.88;;;17.90;1.00;;;;;;20838097;28;20505;-44
2023/08/26 17:37:46;;;;;;;4.28;1.70;;;18.00;1.00;;;;;;20844230;28;20098;-45
2023/08/26 17:47:47;;;;;;;3.47;2.10;;;17.60;1.00;;;;;;20844176;28;20042;-45
2023/08/26 17:57:47;;;;;;;2.88;1.80;;;17.60;1.00;;;;;;20842974;28;20045;-45
2023/08/26 18:07:48;;;;;;;7.10;3.40;;;17.60;1.00;;;;;;20842168;28;20048;-44
2023/08/26 18:17:48;;;;;;;5.30;4.10;;;17.40;1.00;;;;;;20844668;28;20053;-45
2023/08/26 18:27:49;;;;;;;4.00;2.40;;;17.00;1.00;;;;;;20840124;28;20036;-44
2023/08/26 18:37:49;;;;;;;3.55;2.45;;;16.80;7.90;;;;;;20839452;28;20306;-44
2023/08/26 18:47:50;;;;;;;4.05;2.60;;;16.50;20.20;;;;;;20840059;28;20637;-46
2023/08/26 18:57:51;;;;;;;4.03;2.75;;;16.30;43.40;;;;;;20837647;28;20053;-43
2023/08/26 19:07:51;;;;;;;7.05;3.95;;;16.10;58.20;;;;;;20839102;28;20045;-46
2023/08/26 19:17:52;;;;;;;7.65;4.32;;;16.00;82.50;;;;;;20835817;28;20045;-46
2023/08/26 19:27:52;;;;;;;6.60;3.60;;;16.10;76.00;;;;;;20835102;28;20058;-44
2023/08/26 19:37:53;;;;;;;5.88;3.65;;;16.30;55.80;;;;;;20835331;28;21109;-46
2023/08/26 19:47:53;;;;;;;7.15;3.97;;;16.60;38.30;;;;;;20833193;28;20071;-46
2023/08/26 19:57:54;;;;;;;5.72;4.32;;;16.70;20.10;;;;;;20832507;28;20856;-44
2023/08/26 20:07:55;;;;;;;6.32;4.65;;;16.70;18.90;;;;;;20832585;28;20033;-44
2023/08/26 20:17:55;;;;;;;6.55;4.30;;;16.70;18.50;;;;;;20833582;28;20114;-44
2023/08/26 20:27:56;;;;;;;6.00;4.30;;;16.60;18.00;;;;;;20819573;28;20041;-44
2023/08/26 20:37:56;;;;;;;7.32;4.55;;;16.60;5.70;;;;;;20832141;28;20056;-44
2023/08/26 20:47:57;;;;;;;8.30;4.97;;;16.50;15.70;;;;;;20831898;28;20497;-44
2023/08/26 20:58:02;;;;;;;5.90;3.72;;;16.30;23.50;;;;;;20833157;28;20037;-45
2023/08/26 21:08:03;;;;;;;5.10;3.80;;;16.00;43.10;;;;;;20847708;28;20040;-44
2023/08/26 21:18:04;;;;;;;7.65;4.82;;;15.80;66.80;;;;;;20846479;28;20045;-44
2023/08/26 21:28:05;;;;;;;8.10;5.65;;;15.70;83.60;;;;;;20844147;28;20112;-44
2023/08/26 21:38:06;;;;;;;9.82;5.28;;;15.80;72.80;;;;;;20843958;28;20140;-44
2023/08/26 21:48:07;;;;;;;6.20;4.80;;;15.80;76.30;;;;;;20844706;28;20469;-44
2023/08/26 21:58:08;;;;;;;6.70;5.20;;;15.90;53.20;;;;;;20842919;28;20052;-44
2023/08/26 22:08:10;;;;;;;7.30;5.30;;;15.70;62.10;;;;;;20842535;28;20529;-44
2023/08/26 22:18:11;;;;;;;7.72;5.47;;;15.80;49.00;;;;;;20841557;28;20382;-44
2023/08/26 22:28:12;;;;;;;6.53;5.05;;;15.80;39.40;;;;;;20838930;28;20084;-44
2023/08/26 22:38:12;;;;;;;8.60;5.70;;;15.70;43.80;;;;;;20839546;28;20120;-44
2023/08/26 22:48:13;;;;;;;7.25;5.47;;;15.70;33.20;;;;;;20840754;28;20041;-44
2023/08/26 22:58:14;;;;;;;8.30;5.43;;;15.60;32.30;;;;;;20836960;28;20045;-44
2023/08/26 23:08:14;;;;;;;7.85;6.10;;;15.50;64.60;;;;;;20836514;28;20052;-44
2023/08/26 23:18:15;;;;;;;10.63;6.22;;;15.40;89.80;;;;;;20837531;28;20048;-44
2023/08/26 23:28:15;;;;;;;9.20;6.25;;;15.30;79.70;;;;;;20834444;28;20036;-44
2023/08/26 23:38:16;;;;;;;9.70;6.07;;;15.30;85.00;;;;;;20834887;28;20479;-44
2023/08/26 23:48:18;;;;;;;10.00;6.90;;;15.50;60.00;;;;;;20835051;28;20029;-44
2023/08/26 23:58:18;;;;;;;8.27;6.25;;;15.50;49.20;;;;;;20833038;28;20548;-44
